Time;durP1;ratioP1;P1;durP2;ratioP2;P2;SDS_P1;SDS_P2;PMS_P1;PMS_P2;Temp;Humidity;BMP_temperature;BMP_pressure;BME280_temperature;BME280_humidity;BME280_pressure;Samples;Min_cycle;Max_cycle;Signal;HPM_P1;HPM_P2
2022/10/07 00:02:09;;;;;;;9.23;8.33;;;11.80;99.90;;;;;;5092879;28;20222;-50
2022/10/07 00:04:36;;;;;;;11.00;8.07;;;11.80;99.90;;;;;;5094029;28;20195;-49
2022/10/07 00:07:03;;;;;;;9.73;8.83;;;11.70;99.90;;;;;;5074119;28;20293;-49
2022/10/07 00:09:31;;;;;;;10.73;8.33;;;11.70;99.90;;;;;;5073519;28;20274;-49
2022/10/07 00:11:58;;;;;;;8.83;8.10;;;11.70;99.90;;;;;;5088960;28;20204;-49
2022/10/07 00:14:25;;;;;;;8.30;7.50;;;11.80;99.90;;;;;;5093773;28;20195;-50
2022/10/07 00:16:52;;;;;;;7.87;7.27;;;11.80;99.90;;;;;;5087941;28;20719;-49
2022/10/07 00:19:19;;;;;;;8.47;7.77;;;11.70;99.90;;;;;;5092828;28;20704;-48
2022/10/07 00:21:47;;;;;;;9.43;7.50;;;11.70;99.90;;;;;;5092625;28;20216;-48
2022/10/07 00:24:14;;;;;;;8.33;7.50;;;11.70;99.90;;;;;;5093706;28;20699;-49
2022/10/07 00:26:43;;;;;;;7.50;6.80;;;11.60;99.90;;;;;;5076954;28;20259;-49
2022/10/07 00:29:10;;;;;;;8.10;7.40;;;11.50;99.90;;;;;;5093792;28;20206;-49
2022/10/07 00:31:38;;;;;;;11.23;8.73;;;11.50;99.90;;;;;;5093989;28;20203;-48
2022/10/07 00:34:06;;;;;;;10.00;8.10;;;11.50;99.90;;;;;;5085493;28;20208;-49
2022/10/07 00:36:35;;;;;;;11.43;7.93;;;11.50;99.90;;;;;;5078830;28;20200;-49
2022/10/07 00:39:04;;;;;;;7.83;6.93;;;11.50;99.90;;;;;;5084072;28;20197;-48
2022/10/07 00:41:33;;;;;;;9.30;7.07;;;11.50;99.90;;;;;;5092549;28;20219;-48
2022/10/07 00:44:34;;;;;;;8.37;7.50;;;11.50;99.90;;;;;;5091042;28;20207;-48
2022/10/07 00:47:05;;;;;;;7.37;6.77;;;11.50;99.90;;;;;;5087017;28;20281;-48
2022/10/07 00:49:41;;;;;;;9.30;8.40;;;11.40;99.90;;;;;;5093503;28;20226;-50
2022/10/07 00:52:08;;;;;;;8.67;8.00;;;11.40;99.90;;;;;;5092907;28;20208;-50
2022/10/07 00:54:37;;;;;;;8.30;7.30;;;11.30;99.90;;;;;;5089742;28;20207;-50
2022/10/07 00:57:04;;;;;;;9.07;8.17;;;11.30;99.90;;;;;;5078960;28;20221;-50
2022/10/07 00:59:31;;;;;;;8.73;7.80;;;11.30;99.90;;;;;;5093276;28;20226;-51
2022/10/07 01:01:58;;;;;;;8.37;7.57;;;11.40;99.90;;;;;;5093352;28;20231;-49
2022/10/07 01:04:27;;;;;;;10.50;9.20;;;11.40;99.90;;;;;;5093122;28;20203;-50
2022/10/07 01:06:54;;;;;;;8.50;7.57;;;11.40;99.90;;;;;;5085240;28;20203;-49
2022/10/07 01:09:22;;;;;;;8.63;7.83;;;11.40;99.90;;;;;;5089367;28;20307;-50
2022/10/07 01:11:59;;;;;;;7.50;6.93;;;11.40;99.90;;;;;;5087129;28;20735;-50
2022/10/07 01:14:38;;;;;;;7.77;7.07;;;11.40;99.90;;;;;;5086662;28;20639;-51
2022/10/07 01:17:10;;;;;;;10.10;7.73;;;11.40;99.90;;;;;;5074619;28;20236;-51
2022/10/07 01:20:05;;;;;;;6.30;5.80;;;11.40;99.90;;;;;;5089404;28;20218;-50
2022/10/07 01:22:43;;;;;;;10.57;8.10;;;11.40;99.90;;;;;;5088383;28;20255;-50
2022/10/07 01:25:31;;;;;;;8.13;7.30;;;11.40;99.90;;;;;;5085643;28;20202;-50
2022/10/07 01:28:03;;;;;;;9.10;8.30;;;11.40;99.90;;;;;;5086463;28;20317;-49
2022/10/07 01:30:34;;;;;;;10.53;9.57;;;11.40;99.90;;;;;;5089452;28;20238;-50
2022/10/07 01:33:06;;;;;;;10.50;9.13;;;11.40;99.90;;;;;;5080769;28;20197;-50
2022/10/07 01:35:36;;;;;;;10.23;8.63;;;11.40;99.90;;;;;;5088622;28;20219;-50
2022/10/07 01:38:08;;;;;;;11.00;8.83;;;11.40;99.90;;;;;;5084521;28;20627;-50
2022/10/07 01:40:39;;;;;;;9.30;7.97;;;11.40;99.90;;;;;;5092450;28;20416;-50
2022/10/07 01:43:08;;;;;;;9.80;8.90;;;11.50;99.90;;;;;;5092613;28;20208;-51
2022/10/07 01:45:40;;;;;;;9.43;8.40;;;11.50;99.90;;;;;;5087946;28;20217;-50
2022/10/07 01:48:08;;;;;;;9.30;8.50;;;11.50;99.90;;;;;;5085186;28;20203;-49
2022/10/07 01:50:36;;;;;;;9.10;8.27;;;11.50;99.90;;;;;;5092269;28;20222;-50
2022/10/07 01:53:17;;;;;;;11.00;9.60;;;11.60;99.90;;;;;;5097998;28;20204;-50
2022/10/07 01:56:02;;;;;;;9.00;8.03;;;11.60;99.90;;;;;;5102196;28;20206;-49
2022/10/07 01:58:48;;;;;;;9.00;8.17;;;11.70;99.90;;;;;;5089603;28;20199;-50
2022/10/07 02:01:20;;;;;;;19.77;10.67;;;11.70;99.90;;;;;;5089756;28;20229;-50
2022/10/07 02:04:01;;;;;;;8.50;7.70;;;11.70;99.90;;;;;;5091903;28;20251;-49
2022/10/07 02:06:41;;;;;;;9.43;8.53;;;11.70;99.90;;;;;;5085858;28;20254;-50
2022/10/07 02:09:18;;;;;;;10.03;9.10;;;11.80;99.90;;;;;;5084775;28;20271;-49
2022/10/07 02:11:50;;;;;;;12.97;9.60;;;11.80;99.90;;;;;;5088928;28;20208;-50
2022/10/07 02:14:22;;;;;;;9.00;8.20;;;11.80;99.90;;;;;;5085574;28;20255;-50
2022/10/07 02:16:52;;;;;;;10.07;9.03;;;11.80;99.90;;;;;;5086939;28;20241;-50
2022/10/07 02:19:22;;;;;;;9.47;8.57;;;11.80;99.90;;;;;;5083639;28;20287;-50
2022/10/07 02:21:53;;;;;;;8.47;7.77;;;11.80;99.90;;;;;;5090159;28;20216;-50
2022/10/07 02:24:23;;;;;;;9.90;9.00;;;11.90;99.90;;;;;;5087154;28;20547;-49
2022/10/07 02:26:54;;;;;;;10.33;9.33;;;11.90;99.90;;;;;;5084746;28;20261;-50
2022/10/07 02:29:25;;;;;;;11.17;10.07;;;11.90;99.90;;;;;;5091793;28;20221;-49
2022/10/07 02:31:53;;;;;;;11.47;10.00;;;11.90;99.90;;;;;;5087515;28;20731;-50
2022/10/07 02:34:24;;;;;;;9.67;8.60;;;11.90;99.90;;;;;;5091210;28;20199;-49
2022/10/07 02:36:54;;;;;;;11.10;10.00;;;12.00;99.90;;;;;;5087317;28;20256;-49
2022/10/07 02:39:21;;;;;;;12.13;10.90;;;12.00;99.90;;;;;;5086403;28;20220;-49
2022/10/07 02:41:55;;;;;;;11.43;10.23;;;12.10;99.90;;;;;;5091633;28;20258;-50
2022/10/07 02:44:28;;;;;;;8.37;7.67;;;12.10;99.90;;;;;;5091734;28;20557;-50
2022/10/07 02:47:01;;;;;;;12.00;10.90;;;12.10;99.90;;;;;;5085625;28;20201;-50
2022/10/07 02:49:29;;;;;;;10.67;9.70;;;12.10;99.90;;;;;;5089089;28;20221;-50
2022/10/07 02:52:01;;;;;;;13.00;11.03;;;12.20;99.90;;;;;;5091335;28;20208;-50
2022/10/07 02:54:33;;;;;;;10.27;9.37;;;12.20;99.90;;;;;;5090213;28;20204;-50
2022/10/07 02:57:01;;;;;;;15.63;11.77;;;12.20;99.90;;;;;;5089874;28;20231;-49
2022/10/07 02:59:32;;;;;;;14.43;11.60;;;12.20;99.90;;;;;;5089453;28;20220;-49
2022/10/07 03:02:05;;;;;;;12.67;11.37;;;12.20;99.90;;;;;;5091106;28;20208;-49
2022/10/07 03:04:32;;;;;;;16.70;12.00;;;12.20;99.90;;;;;;5091402;28;20205;-49
2022/10/07 03:07:00;;;;;;;13.43;12.07;;;12.20;99.90;;;;;;5087398;28;20227;-48
2022/10/07 03:09:27;;;;;;;12.33;11.17;;;12.30;99.90;;;;;;5090447;28;20212;-48
2022/10/07 03:11:54;;;;;;;12.83;11.53;;;12.30;99.90;;;;;;5091546;28;20256;-49
2022/10/07 03:14:23;;;;;;;14.90;13.33;;;12.30;99.90;;;;;;5089187;28;20252;-48
2022/10/07 03:16:51;;;;;;;12.13;11.17;;;12.30;99.90;;;;;;5089334;28;20199;-48
2022/10/07 03:19:19;;;;;;;12.27;11.20;;;12.30;99.90;;;;;;5095003;28;20298;-48
2022/10/07 03:21:46;;;;;;;13.70;12.50;;;12.30;99.90;;;;;;5091115;28;20227;-49
2022/10/07 03:24:13;;;;;;;12.57;11.33;;;12.30;99.90;;;;;;5095033;28;20222;-48
2022/10/07 03:26:40;;;;;;;13.40;12.20;;;12.20;99.90;;;;;;5085249;28;20204;-48
2022/10/07 03:29:09;;;;;;;14.03;12.73;;;12.20;99.90;;;;;;5094986;28;20248;-48
2022/10/07 03:31:36;;;;;;;11.97;10.87;;;12.20;99.90;;;;;;5094980;28;20677;-48
2022/10/07 03:34:05;;;;;;;12.87;11.53;;;12.10;99.90;;;;;;5094753;28;20226;-49
2022/10/07 03:36:32;;;;;;;18.73;12.17;;;12.00;99.90;;;;;;5085693;28;20677;-49
2022/10/07 03:38:59;;;;;;;14.13;12.67;;;12.00;99.90;;;;;;5094305;28;20193;-49
2022/10/07 03:41:26;;;;;;;14.50;13.00;;;12.10;99.90;;;;;;5094783;28;20203;-49
2022/10/07 03:43:56;;;;;;;16.40;13.63;;;12.00;99.90;;;;;;5084114;28;20195;-48
2022/10/07 03:46:23;;;;;;;15.27;13.83;;;12.00;99.90;;;;;;5089041;28;20708;-48
2022/10/07 03:48:50;;;;;;;15.53;13.97;;;11.90;99.90;;;;;;5092285;28;20263;-49
2022/10/07 03:51:18;;;;;;;14.67;13.10;;;11.90;99.90;;;;;;5087436;28;20224;-49
2022/10/07 03:53:46;;;;;;;23.73;16.30;;;12.00;99.90;;;;;;5094270;28;20200;-49
2022/10/07 03:56:13;;;;;;;17.83;14.73;;;12.00;99.90;;;;;;5094549;28;20204;-49
2022/10/07 03:58:40;;;;;;;20.10;16.20;;;12.00;99.90;;;;;;5094770;28;20210;-48
2022/10/07 04:01:10;;;;;;;19.53;15.43;;;12.10;99.90;;;;;;5084294;28;20240;-48
2022/10/07 04:03:40;;;;;;;21.00;16.83;;;12.00;99.90;;;;;;5090704;28;20219;-49
2022/10/07 04:06:07;;;;;;;19.83;15.83;;;12.10;99.90;;;;;;5092479;28;20197;-48
2022/10/07 04:08:39;;;;;;;17.07;15.27;;;12.10;99.90;;;;;;5094207;28;20238;-49
2022/10/07 04:11:07;;;;;;;18.57;16.67;;;12.00;99.90;;;;;;5082641;28;20219;-48
2022/10/07 04:13:34;;;;;;;20.57;17.70;;;12.00;99.90;;;;;;5082701;28;20203;-48
2022/10/07 04:16:06;;;;;;;18.47;16.60;;;12.00;99.90;;;;;;5092454;28;20248;-48
2022/10/07 04:18:33;;;;;;;19.27;17.30;;;12.00;99.90;;;;;;5087470;28;20547;-48
2022/10/07 04:21:00;;;;;;;19.07;17.23;;;12.00;99.90;;;;;;5093863;28;20217;-48
2022/10/07 04:23:27;;;;;;;18.37;16.03;;;12.10;99.90;;;;;;5093990;28;20227;-49
2022/10/07 04:25:56;;;;;;;19.17;17.17;;;12.10;99.90;;;;;;5094010;28;20206;-49
2022/10/07 04:28:25;;;;;;;28.73;20.30;;;12.10;99.90;;;;;;5087746;28;20196;-49
2022/10/07 04:30:53;;;;;;;20.77;18.53;;;12.10;99.90;;;;;;5088889;28;20246;-48
2022/10/07 04:33:22;;;;;;;26.40;21.63;;;12.10;99.90;;;;;;5083223;28;20657;-49
2022/10/07 04:35:50;;;;;;;24.23;19.50;;;12.10;99.90;;;;;;5083086;28;20206;-49
2022/10/07 04:38:18;;;;;;;25.90;21.47;;;12.10;99.90;;;;;;5087803;28;20195;-48
2022/10/07 04:40:48;;;;;;;32.03;25.17;;;12.10;99.90;;;;;;5083585;28;20220;-50
2022/10/07 04:43:23;;;;;;;33.00;23.03;;;12.10;99.90;;;;;;5082082;28;20220;-48
2022/10/07 04:45:52;;;;;;;27.90;21.07;;;12.10;99.90;;;;;;5077537;28;20237;-48
2022/10/07 04:48:21;;;;;;;26.23;21.53;;;12.10;99.90;;;;;;5078066;28;20226;-48
2022/10/07 04:50:50;;;;;;;25.53;21.03;;;12.10;99.90;;;;;;5086925;28;20232;-49
2022/10/07 04:53:18;;;;;;;26.13;20.03;;;12.10;99.90;;;;;;5083445;28;20213;-48
2022/10/07 04:55:47;;;;;;;24.40;20.63;;;12.10;99.90;;;;;;5085840;28;20204;-49
2022/10/07 04:58:16;;;;;;;27.40;21.10;;;12.10;99.90;;;;;;5082503;28;20234;-48
2022/10/07 05:00:44;;;;;;;32.83;21.87;;;12.20;99.90;;;;;;5088919;28;20258;-48
2022/10/07 05:03:11;;;;;;;31.83;21.90;;;12.20;99.90;;;;;;5071978;28;20314;-49
2022/10/07 05:05:42;;;;;;;26.70;19.47;;;12.20;99.90;;;;;;5085623;28;20619;-49
2022/10/07 05:08:11;;;;;;;27.27;19.80;;;12.20;99.90;;;;;;5085031;28;20202;-48
2022/10/07 05:10:40;;;;;;;21.23;17.40;;;12.10;99.90;;;;;;5080956;28;20828;-48
2022/10/07 05:13:11;;;;;;;21.73;17.77;;;12.10;99.90;;;;;;5071096;28;20191;-49
2022/10/07 05:15:47;;;;;;;24.50;20.03;;;12.10;99.90;;;;;;5091815;28;20199;-48
2022/10/07 05:18:16;;;;;;;23.07;17.90;;;12.10;99.90;;;;;;5091720;28;20193;-48
2022/10/07 05:20:45;;;;;;;21.40;17.83;;;12.10;99.90;;;;;;5092761;28;20228;-49
2022/10/07 05:23:12;;;;;;;19.30;17.13;;;12.10;99.90;;;;;;5085052;28;20222;-48
2022/10/07 05:25:39;;;;;;;24.00;16.87;;;12.10;99.90;;;;;;5080585;28;20738;-48
2022/10/07 05:28:06;;;;;;;20.93;16.73;;;12.10;99.90;;;;;;5092701;28;20198;-48
2022/10/07 05:30:33;;;;;;;19.20;16.30;;;12.00;99.90;;;;;;5092135;28;20220;-50
2022/10/07 05:33:01;;;;;;;17.97;14.97;;;12.00;99.90;;;;;;5088526;28;20633;-48
2022/10/07 05:35:32;;;;;;;21.43;16.43;;;12.10;99.90;;;;;;5084351;28;20576;-50
2022/10/07 05:38:00;;;;;;;22.70;19.23;;;12.00;99.90;;;;;;5085304;28;20199;-49
2022/10/07 05:40:29;;;;;;;21.67;17.60;;;12.10;99.90;;;;;;5088027;28;20223;-49
2022/10/07 05:42:56;;;;;;;24.50;18.50;;;12.10;99.90;;;;;;5083681;28;20345;-49
2022/10/07 05:45:23;;;;;;;27.20;18.53;;;12.10;99.90;;;;;;5088921;28;20636;-49
2022/10/07 05:47:50;;;;;;;33.57;20.10;;;12.10;99.90;;;;;;5089754;28;20200;-48
2022/10/07 05:50:19;;;;;;;30.50;19.80;;;12.20;99.90;;;;;;5089585;28;20300;-49
2022/10/07 05:52:46;;;;;;;38.87;21.57;;;12.20;99.90;;;;;;5088875;28;20634;-48
2022/10/07 05:55:13;;;;;;;32.50;20.67;;;12.20;99.90;;;;;;5084076;28;20206;-48
2022/10/07 05:57:40;;;;;;;30.13;20.03;;;12.20;99.90;;;;;;5088138;28;20204;-49
2022/10/07 06:00:08;;;;;;;31.70;20.83;;;12.20;99.90;;;;;;5080221;28;20217;-49
2022/10/07 06:02:37;;;;;;;29.43;20.10;;;12.20;99.90;;;;;;5082821;28;20692;-48
2022/10/07 06:05:05;;;;;;;26.27;19.47;;;12.30;99.90;;;;;;5079296;28;20199;-49
2022/10/07 06:07:33;;;;;;;33.03;20.70;;;12.30;99.90;;;;;;5087780;28;20630;-49
2022/10/07 06:15:26;;;;;;;23.03;17.17;;;12.40;99.90;;;;;;5080428;28;20190;-48
2022/10/07 06:17:53;;;;;;;30.50;19.30;;;12.40;99.90;;;;;;5086367;28;20206;-49
2022/10/07 06:20:20;;;;;;;32.90;17.53;;;12.40;99.90;;;;;;5089524;28;20222;-49
2022/10/07 06:22:48;;;;;;;25.07;17.40;;;12.50;99.90;;;;;;5080730;28;20223;-49
2022/10/07 06:25:15;;;;;;;26.40;18.07;;;12.50;99.90;;;;;;5089502;28;20259;-49
2022/10/07 06:27:42;;;;;;;31.13;19.40;;;12.50;99.90;;;;;;5087469;28;20738;-49
2022/10/07 06:30:11;;;;;;;35.63;20.30;;;12.50;99.90;;;;;;5090429;28;20270;-49
2022/10/07 06:32:38;;;;;;;28.57;17.87;;;12.60;99.90;;;;;;5089572;28;20197;-49
2022/10/07 06:35:06;;;;;;;33.63;18.00;;;12.60;99.90;;;;;;5088179;28;20202;-48
2022/10/07 06:37:33;;;;;;;37.93;20.40;;;12.60;99.90;;;;;;5087107;28;20686;-50
2022/10/07 06:40:02;;;;;;;31.67;19.77;;;12.60;99.90;;;;;;5087529;28;20216;-49
2022/10/07 06:42:29;;;;;;;36.27;19.70;;;12.60;99.90;;;;;;5078340;28;20200;-49
2022/10/07 06:44:56;;;;;;;30.07;20.83;;;12.70;99.90;;;;;;5091245;28;20202;-47
2022/10/07 06:47:22;;;;;;;38.07;21.57;;;12.70;99.90;;;;;;5091564;28;20252;-48
2022/10/07 06:49:49;;;;;;;34.30;20.43;;;12.80;99.90;;;;;;5089017;28;20235;-49
2022/10/07 06:52:16;;;;;;;34.40;20.80;;;12.90;99.90;;;;;;5073375;28;20262;-48
2022/10/07 06:54:43;;;;;;;32.97;20.60;;;12.90;99.90;;;;;;5082663;28;20200;-48
2022/10/07 06:57:12;;;;;;;30.77;19.63;;;12.80;99.90;;;;;;5087787;28;20205;-48
2022/10/07 06:59:39;;;;;;;32.80;19.83;;;12.90;99.90;;;;;;5079933;28;20767;-48
2022/10/07 07:02:06;;;;;;;24.83;17.77;;;12.80;99.90;;;;;;5070136;28;20205;-49
2022/10/07 07:04:33;;;;;;;25.90;17.20;;;12.80;99.90;;;;;;5072703;28;20215;-48
2022/10/07 07:07:01;;;;;;;29.70;17.77;;;12.80;99.90;;;;;;5088173;28;20207;-48
2022/10/07 07:09:33;;;;;;;26.17;18.70;;;12.80;99.90;;;;;;5075100;28;20720;-48
2022/10/07 07:12:00;;;;;;;26.87;16.53;;;12.90;99.90;;;;;;5087658;28;20203;-49
2022/10/07 07:14:29;;;;;;;26.43;17.10;;;13.00;99.90;;;;;;5095348;28;20203;-49
2022/10/07 07:16:56;;;;;;;24.83;16.10;;;13.10;99.90;;;;;;5095490;28;20589;-48
2022/10/07 07:19:23;;;;;;;38.33;16.47;;;13.30;99.90;;;;;;5096152;28;20631;-49
2022/10/07 07:21:50;;;;;;;22.90;16.50;;;13.40;99.90;;;;;;5095348;28;20249;-48
2022/10/07 07:24:17;;;;;;;27.80;19.77;;;13.50;99.90;;;;;;5085932;28;20522;-48
2022/10/07 07:26:45;;;;;;;27.30;19.27;;;13.50;99.90;;;;;;5083466;28;20260;-49
2022/10/07 07:29:13;;;;;;;29.17;20.23;;;13.60;99.90;;;;;;5093491;28;20207;-50
2022/10/07 07:31:42;;;;;;;28.27;20.60;;;13.80;99.90;;;;;;5087329;28;20692;-48
2022/10/07 07:34:11;;;;;;;22.10;18.13;;;13.70;99.90;;;;;;5090145;28;20254;-48
2022/10/07 07:36:40;;;;;;;28.63;20.53;;;13.80;99.90;;;;;;5089970;28;20203;-48
2022/10/07 07:39:09;;;;;;;28.17;19.67;;;13.70;99.90;;;;;;5089700;28;20697;-48
2022/10/07 07:41:39;;;;;;;25.47;19.87;;;13.80;99.90;;;;;;5089618;28;20245;-48
2022/10/07 07:44:10;;;;;;;22.53;18.73;;;13.80;99.90;;;;;;5080866;28;20227;-49
2022/10/07 07:46:42;;;;;;;25.37;19.37;;;13.80;99.90;;;;;;5093860;28;20695;-48
2022/10/07 07:49:10;;;;;;;22.00;17.00;;;14.10;99.90;;;;;;5094497;28;20253;-48
2022/10/07 07:51:38;;;;;;;20.57;17.97;;;14.40;99.90;;;;;;5094341;28;20209;-48
2022/10/07 07:54:05;;;;;;;18.27;15.80;;;14.60;99.90;;;;;;5094360;28;20196;-48
2022/10/07 07:56:32;;;;;;;16.47;14.80;;;14.70;99.90;;;;;;5094399;28;20197;-49
2022/10/07 07:59:00;;;;;;;18.30;15.47;;;14.80;99.90;;;;;;5086623;28;20192;-49
2022/10/07 08:01:30;;;;;;;17.87;14.37;;;14.90;99.90;;;;;;5084500;28;20870;-49
2022/10/07 08:03:59;;;;;;;18.87;13.90;;;15.10;99.90;;;;;;5092076;28;20248;-49
2022/10/07 08:06:27;;;;;;;14.50;12.80;;;15.30;99.90;;;;;;5083948;28;20680;-49
2022/10/07 08:08:55;;;;;;;14.53;13.07;;;15.40;99.90;;;;;;5081033;28;20359;-48
2022/10/07 08:11:22;;;;;;;18.03;13.33;;;15.40;99.90;;;;;;5088858;28;20200;-49
2022/10/07 08:13:50;;;;;;;14.77;12.80;;;15.50;99.90;;;;;;5078272;28;20200;-49
2022/10/07 08:16:19;;;;;;;14.50;13.07;;;15.50;99.90;;;;;;5078006;28;20293;-49
2022/10/07 08:18:49;;;;;;;15.47;12.93;;;15.30;99.90;;;;;;5083455;28;20201;-49
2022/10/07 08:21:19;;;;;;;14.87;13.30;;;15.40;99.90;;;;;;5085694;28;20273;-49
2022/10/07 08:23:47;;;;;;;15.97;13.07;;;15.40;99.90;;;;;;5081771;28;20232;-49
2022/10/07 08:26:14;;;;;;;13.70;12.33;;;15.40;99.90;;;;;;5086492;28;20706;-49
2022/10/07 08:28:44;;;;;;;14.23;12.90;;;15.50;99.90;;;;;;5092968;28;20292;-48
2022/10/07 08:31:12;;;;;;;14.83;13.53;;;15.60;99.90;;;;;;5085642;28;20221;-49
2022/10/07 08:33:41;;;;;;;15.60;13.57;;;15.60;99.90;;;;;;5087731;28;20197;-50
2022/10/07 08:36:12;;;;;;;15.50;13.90;;;15.60;99.90;;;;;;5086331;28;20193;-49
2022/10/07 08:38:41;;;;;;;15.27;13.93;;;15.90;99.90;;;;;;5093679;28;20197;-49
2022/10/07 08:41:22;;;;;;;13.53;12.23;;;16.50;99.90;;;;;;5093858;28;20217;-49
2022/10/07 08:43:51;;;;;;;14.07;12.63;;;17.40;99.90;;;;;;5093578;28;20266;-49
2022/10/07 08:46:23;;;;;;;13.10;11.80;;;18.00;99.90;;;;;;5093686;28;20841;-48
2022/10/07 08:48:54;;;;;;;15.60;12.77;;;18.50;99.90;;;;;;5092999;28;20291;-49
2022/10/07 08:51:25;;;;;;;12.93;11.53;;;19.20;99.90;;;;;;5073288;28;20200;-49
2022/10/07 08:53:57;;;;;;;12.53;10.57;;;19.10;99.90;;;;;;5073146;28;20200;-49
2022/10/07 08:56:26;;;;;;;12.37;11.07;;;19.70;99.90;;;;;;5072039;28;20200;-50
2022/10/07 08:59:04;;;;;;;11.97;10.87;;;19.70;99.90;;;;;;5080732;28;20250;-49
2022/10/07 09:01:42;;;;;;;12.13;11.03;;;20.10;99.90;;;;;;5093105;28;20196;-49
2022/10/07 09:04:23;;;;;;;12.80;11.53;;;20.30;99.90;;;;;;5092996;28;20293;-49
2022/10/07 09:06:54;;;;;;;13.13;10.53;;;20.80;99.90;;;;;;5082788;28;20209;-50
2022/10/07 09:09:27;;;;;;;11.90;10.70;;;20.60;99.90;;;;;;5090590;28;20284;-50
2022/10/07 09:11:56;;;;;;;13.47;12.20;;;20.60;99.90;;;;;;5092916;28;20251;-49
2022/10/07 09:14:28;;;;;;;11.73;10.63;;;20.80;99.90;;;;;;5092470;28;20199;-49
2022/10/07 09:17:01;;;;;;;10.33;9.53;;;21.20;99.90;;;;;;5083718;28;20201;-49
2022/10/07 09:19:33;;;;;;;10.40;9.50;;;21.30;99.90;;;;;;5089503;28;20307;-49
2022/10/07 09:22:07;;;;;;;11.30;10.17;;;21.80;99.90;;;;;;5092832;28;20212;-49
2022/10/07 09:24:35;;;;;;;14.27;10.33;;;22.00;99.90;;;;;;5077785;28;20320;-49
2022/10/07 09:27:11;;;;;;;11.43;10.43;;;22.10;99.90;;;;;;5080507;28;20201;-49
2022/10/07 09:29:38;;;;;;;11.63;10.63;;;22.30;99.90;;;;;;5091344;28;20265;-49
2022/10/07 09:32:05;;;;;;;12.23;10.73;;;22.60;99.90;;;;;;5091733;28;20200;-49
2022/10/07 09:34:32;;;;;;;13.33;10.20;;;22.60;99.90;;;;;;5088436;28;20192;-49
2022/10/07 09:37:11;;;;;;;10.00;9.17;;;22.80;99.90;;;;;;5082231;28;20200;-49
2022/10/07 09:39:41;;;;;;;12.17;10.97;;;22.70;99.90;;;;;;5085542;28;20664;-49
2022/10/07 09:42:15;;;;;;;11.87;10.93;;;23.00;99.90;;;;;;5086391;28;20216;-49
2022/10/07 09:44:42;;;;;;;10.90;9.77;;;22.10;99.90;;;;;;5084145;28;20282;-49
2022/10/07 09:47:19;;;;;;;11.30;10.10;;;22.10;99.90;;;;;;5082605;28;20262;-49
2022/10/07 09:49:51;;;;;;;10.50;9.23;;;22.30;99.90;;;;;;5089094;28;20220;-49
2022/10/07 09:52:22;;;;;;;12.20;10.93;;;22.50;99.90;;;;;;5088275;28;20311;-49
2022/10/07 09:54:52;;;;;;;11.17;10.17;;;22.20;99.90;;;;;;5090191;28;20193;-50
2022/10/07 09:57:28;;;;;;;11.27;9.63;;;22.30;99.90;;;;;;5087603;28;20216;-49
2022/10/07 10:00:16;;;;;;;10.73;9.70;;;22.20;99.90;;;;;;5082398;28;20220;-49
2022/10/07 10:02:47;;;;;;;9.93;9.07;;;21.50;99.90;;;;;;5092284;28;20192;-50
2022/10/07 10:05:22;;;;;;;11.97;10.47;;;21.20;99.90;;;;;;5091809;28;20224;-50
2022/10/07 10:07:55;;;;;;;10.27;9.37;;;21.40;99.90;;;;;;5086244;28;20201;-49
2022/10/07 10:10:27;;;;;;;10.43;9.37;;;21.80;99.90;;;;;;5090908;28;20220;-49
2022/10/07 10:12:55;;;;;;;10.47;9.67;;;22.30;99.90;;;;;;5092025;28;20727;-49
2022/10/07 10:15:39;;;;;;;9.10;8.30;;;22.70;99.90;;;;;;5078493;28;20233;-50
2022/10/07 10:18:34;;;;;;;10.73;9.73;;;22.80;99.90;;;;;;5072073;28;20292;-48
2022/10/07 10:21:28;;;;;;;10.07;9.07;;;22.80;99.90;;;;;;5087900;28;20678;-49
2022/10/07 10:23:59;;;;;;;10.53;9.70;;;22.60;99.90;;;;;;5088933;28;20209;-49
2022/10/07 10:26:54;;;;;;;10.20;9.33;;;22.30;99.90;;;;;;5072850;28;20196;-49
2022/10/07 10:29:34;;;;;;;11.27;10.13;;;22.60;99.90;;;;;;5072992;28;21093;-49
2022/10/07 10:32:21;;;;;;;10.40;9.30;;;22.30;99.90;;;;;;5082837;28;20296;-49
2022/10/07 10:34:56;;;;;;;12.30;11.20;;;22.10;99.90;;;;;;5078443;28;20193;-49
2022/10/07 10:37:30;;;;;;;12.50;11.33;;;21.50;99.90;;;;;;5091620;28;20200;-49
2022/10/07 10:40:08;;;;;;;12.37;11.27;;;20.60;99.90;;;;;;5088488;28;20855;-49
2022/10/07 10:42:47;;;;;;;10.40;9.33;;;20.40;99.90;;;;;;5089172;28;20817;-48
2022/10/07 10:45:30;;;;;;;12.13;10.93;;;19.80;99.90;;;;;;5071442;28;20231;-49
2022/10/07 10:48:17;;;;;;;11.53;10.47;;;19.40;99.90;;;;;;5070875;28;20205;-48
2022/10/07 10:50:52;;;;;;;11.77;10.70;;;19.10;99.90;;;;;;5088987;28;20282;-49
2022/10/07 10:53:35;;;;;;;11.53;10.23;;;19.00;99.90;;;;;;5086885;28;20211;-49
2022/10/07 10:56:20;;;;;;;11.90;10.70;;;19.00;99.90;;;;;;5083257;28;20623;-49
2022/10/07 10:59:02;;;;;;;10.83;9.70;;;19.20;99.90;;;;;;5085406;28;20232;-49
2022/10/07 11:01:35;;;;;;;11.67;10.63;;;19.20;99.90;;;;;;5085088;28;20224;-49
2022/10/07 11:04:37;;;;;;;12.43;11.13;;;19.40;99.90;;;;;;5090961;28;20231;-49
2022/10/07 11:07:08;;;;;;;11.03;9.77;;;19.40;99.90;;;;;;5038745;28;20208;-49
2022/10/07 11:09:41;;;;;;;12.57;11.30;;;19.50;99.90;;;;;;5078956;28;20216;-49
2022/10/07 11:12:20;;;;;;;12.73;11.43;;;19.40;99.90;;;;;;5084105;28;20220;-49
2022/10/07 11:14:53;;;;;;;10.93;10.00;;;19.30;99.90;;;;;;5091190;28;20200;-49
2022/10/07 11:17:24;;;;;;;11.63;10.63;;;19.10;99.90;;;;;;5091082;28;20283;-49
2022/10/07 11:19:56;;;;;;;13.63;11.63;;;19.10;99.90;;;;;;5085022;28;20244;-49
2022/10/07 11:22:32;;;;;;;11.40;10.30;;;19.30;99.90;;;;;;5088916;28;20224;-49
2022/10/07 11:25:07;;;;;;;14.33;11.33;;;19.20;99.90;;;;;;5088361;28;20220;-49
2022/10/07 11:27:35;;;;;;;13.20;10.77;;;19.30;99.90;;;;;;5090920;28;20199;-48
2022/10/07 11:30:10;;;;;;;12.07;10.87;;;19.10;99.90;;;;;;5088820;28;20827;-49
2022/10/07 11:32:45;;;;;;;10.27;9.33;;;19.20;99.90;;;;;;5090660;28;20254;-50
2022/10/07 11:35:24;;;;;;;14.03;12.53;;;19.20;99.90;;;;;;5090188;28;20685;-49
2022/10/07 11:37:58;;;;;;;12.50;11.20;;;19.00;99.90;;;;;;5072383;28;20212;-49
2022/10/07 11:40:28;;;;;;;11.57;10.43;;;18.90;99.90;;;;;;5089289;28;20720;-49
2022/10/07 11:42:57;;;;;;;11.40;10.40;;;18.90;99.90;;;;;;5094971;28;20200;-49
2022/10/07 11:45:30;;;;;;;10.00;9.07;;;18.90;99.90;;;;;;5094395;28;20267;-48
2022/10/07 11:48:01;;;;;;;9.70;8.80;;;18.90;99.90;;;;;;5092558;28;20200;-50
2022/10/07 11:50:31;;;;;;;11.30;10.10;;;18.90;99.90;;;;;;5089010;28;20220;-49
2022/10/07 11:53:05;;;;;;;10.83;9.83;;;18.80;99.90;;;;;;5094075;28;20558;-49
2022/10/07 11:55:38;;;;;;;11.30;10.30;;;18.80;99.90;;;;;;5094225;28;20613;-49
2022/10/07 11:58:06;;;;;;;11.57;10.53;;;18.80;99.90;;;;;;5077909;28;20309;-49
2022/10/07 12:00:38;;;;;;;11.37;10.23;;;18.80;99.90;;;;;;5094275;28;20303;-49
2022/10/07 12:03:13;;;;;;;11.07;10.17;;;18.90;99.90;;;;;;5093936;28;20786;-49
2022/10/07 12:06:09;;;;;;;12.33;11.03;;;18.80;99.90;;;;;;5094189;28;20223;-49
2022/10/07 12:08:40;;;;;;;10.40;9.40;;;18.70;99.90;;;;;;5092809;28;20204;-49
2022/10/07 12:11:44;;;;;;;11.33;10.23;;;18.60;99.90;;;;;;5086671;28;20303;-49
2022/10/07 12:14:40;;;;;;;12.77;11.53;;;18.80;99.90;;;;;;5076278;28;20236;-50
2022/10/07 12:17:24;;;;;;;11.57;10.50;;;18.80;99.90;;;;;;5083627;28;20211;-49
2022/10/07 12:20:41;;;;;;;11.93;10.87;;;19.00;99.90;;;;;;5087533;28;20222;-50
2022/10/07 12:23:40;;;;;;;11.27;10.27;;;18.90;99.90;;;;;;4987545;28;20199;-49
2022/10/07 12:26:47;;;;;;;13.70;12.00;;;18.90;99.90;;;;;;5004258;28;20214;-49
2022/10/07 12:29:31;;;;;;;11.87;10.70;;;18.80;99.90;;;;;;5082038;28;20218;-50
2022/10/07 12:31:58;;;;;;;12.47;11.23;;;18.80;99.90;;;;;;5086786;28;20200;-49
2022/10/07 12:34:35;;;;;;;11.70;10.60;;;18.80;99.90;;;;;;5086398;28;20189;-49
2022/10/07 12:37:45;;;;;;;14.50;11.40;;;18.80;99.90;;;;;;5085923;28;20204;-49
2022/10/07 12:40:22;;;;;;;12.17;10.90;;;18.70;99.90;;;;;;5091494;28;20308;-49
2022/10/07 12:42:56;;;;;;;13.20;11.77;;;18.70;99.90;;;;;;5093359;28;20199;-49
2022/10/07 12:45:27;;;;;;;15.40;13.07;;;18.60;99.90;;;;;;5093055;28;20280;-49
2022/10/07 12:47:57;;;;;;;22.23;14.30;;;18.50;99.90;;;;;;5080431;28;20247;-49
2022/10/07 12:50:30;;;;;;;16.13;13.07;;;18.50;99.90;;;;;;5080349;28;20217;-48
2022/10/07 12:53:01;;;;;;;14.83;13.10;;;18.40;99.90;;;;;;5092788;28;20559;-49
2022/10/07 12:55:31;;;;;;;15.07;12.30;;;18.40;99.90;;;;;;5093612;28;20250;-49
2022/10/07 12:59:46;;;;;;;14.73;13.30;;;18.40;99.90;;;;;;5090220;28;20214;-49
2022/10/07 13:01:02;;;;;;;12.17;11.03;;;18.30;99.90;;;;;;5090986;28;20217;-49